Cassville, Georgia
Current Conditions -  °F | °C
As of 1:53 PM on Friday 24 Oct 2014 (Local Time) from KVPC Reporting Station
Clear Clear  
Wind Chill: 68°   Ceiling: Unl
Heat Index: 68°   Visibility: 10mi
Dew Point: 46°   Wind: 3mph
Humidity: 45%   Direction: 200°SSW
Pressure: 30.05"   Gusts: NA
Location:  34.24°N, 84.85°W
Report Text: KVPC 241753Z AUTO 20003KT 10SM CLR 20/08 A3005 RMK AO2 SLP169 T02000078 10200 20078 58017
Loading
Personal Weather Stations






























Interactive Weather Map
Tropical Storm Tracking
New forecast layout! Learn more

10-Day Weather Forecast

Advertisements
Track Severe Weather on mobile